»·PEaware :: CGMWT 1RL-KSEA

CGMWT :: 1RL-KSEA

FLIGHT INFORMATION

Flight Status: Arrived
Operator: Unknown
More flights by this operator :: More flights under this callsign
Pilot: Konrad W. (32064)
Aircraft: Diamond DA-40
(DA40)
More flights by this aircraft type
Origin: 1RL
Destination: KSEA Seattle-Tacoma Intl
United States
More flights between these airports :: More routes between these airports
Route:
File this flight plan on PilotEdge
Remarks:
Altitude:
(Current/Filed)
3,500ft
Speed:
(Current/Filed)
150kts
Departed: 19-Nov-20 08:53 PM
Arrived: 19-Nov-20 09:49 PM
Distance/Time
Traveled:
Not Available
Distance/Time
To Go:
Arrived

Flight Plot

Page will automatically refresh every two minutes.

Flight plan parsing failed; only flown route is shown


Map Options




Map Legend


Flown Route
Filed Route
Departure Airport
Arrival Airport
Navaid (VOR, NDB)
Fix

Horizontal Profiles

Position Reports

Time Latitude Longitude Heading Altitude Ground
Speed
19-Nov-20 20:48 48.979242 -123.080277 269 9ft 0kts
19-Nov-20 20:48 48.979242 -123.080277 269 9ft 0kts
19-Nov-20 20:49 48.979242 -123.080277 269 9ft 0kts
19-Nov-20 20:50 48.979378 -123.080348 21 9ft 7kts
19-Nov-20 20:51 48.980220 -123.079315 176 11ft 0kts
19-Nov-20 20:52 48.967879 -123.079334 178 271ft 74kts
19-Nov-20 20:53 48.944319 -123.078640 180 957ft 89kts
19-Nov-20 20:54 48.918735 -123.076649 170 1668ft 96kts
19-Nov-20 20:55 48.892714 -123.063253 168 2361ft 101kts
19-Nov-20 20:56 48.865616 -123.048909 169 3056ft 102kts
19-Nov-20 20:57 48.840803 -123.035794 171 3731ft 88kts
19-Nov-20 20:58 48.818573 -123.024065 172 4447ft 87kts
19-Nov-20 20:59 48.793490 -123.010816 171 5183ft 103kts
19-Nov-20 21:00 48.763163 -122.994823 169 5538ft 129kts
19-Nov-20 21:01 48.727922 -122.976269 169 5492ft 134kts
19-Nov-20 21:02 48.692854 -122.957833 169 5498ft 133kts
19-Nov-20 21:03 48.657585 -122.939322 169 5508ft 134kts
19-Nov-20 21:04 48.622164 -122.920765 169 5512ft 136kts
19-Nov-20 21:05 48.586480 -122.902065 169 5493ft 133kts
19-Nov-20 21:06 48.551480 -122.883764 169 5507ft 133kts
19-Nov-20 21:07 48.516911 -122.865712 169 5505ft 127kts
19-Nov-20 21:08 48.484198 -122.848663 170 5511ft 120kts
19-Nov-20 21:09 48.453090 -122.832469 169 5522ft 118kts
19-Nov-20 21:10 48.421847 -122.816212 170 5519ft 119kts
19-Nov-20 21:11 48.390556 -122.799963 170 5498ft 118kts
19-Nov-20 21:12 48.359652 -122.783931 170 5501ft 117kts
19-Nov-20 21:13 48.328946 -122.768020 169 5502ft 117kts
19-Nov-20 21:14 48.298150 -122.752078 169 5504ft 117kts
19-Nov-20 21:15 48.267319 -122.736139 168 5512ft 118kts
19-Nov-20 21:16 48.236194 -122.720067 167 5503ft 118kts
19-Nov-20 21:17 48.205941 -122.704075 166 5379ft 113kts
19-Nov-20 21:18 48.189342 -122.670036 79 4755ft 125kts
19-Nov-20 21:19 48.194682 -122.617164 118 3968ft 130kts
19-Nov-20 21:20 48.175477 -122.576506 127 3526ft 104kts
19-Nov-20 21:21 48.159568 -122.542625 126 3522ft 105kts
19-Nov-20 21:22 48.141749 -122.504621 126 3513ft 112kts
19-Nov-20 21:23 48.123842 -122.466464 126 3517ft 112kts
19-Nov-20 21:24 48.106465 -122.429485 126 3515ft 107kts
19-Nov-20 21:25 48.084520 -122.408437 151 3518ft 106kts
19-Nov-20 21:26 48.058678 -122.387937 152 3516ft 104kts
19-Nov-20 21:27 48.032262 -122.370818 190 3515ft 107kts
19-Nov-20 21:28 48.001483 -122.370252 175 3483ft 110kts
19-Nov-20 21:29 47.970385 -122.366913 175 3305ft 117kts
19-Nov-20 21:30 47.938902 -122.363526 175 3107ft 108kts
19-Nov-20 21:31 47.909900 -122.360440 175 3098ft 101kts
19-Nov-20 21:32 47.882159 -122.357506 175 3103ft 99kts
19-Nov-20 21:33 47.852206 -122.354349 175 2732ft 116kts
19-Nov-20 21:34 47.820574 -122.351013 176 2481ft 107kts
19-Nov-20 21:35 47.792028 -122.348015 176 2466ft 96kts
19-Nov-20 21:36 47.765463 -122.345229 177 2338ft 102kts
19-Nov-20 21:37 47.735984 -122.342132 176 2011ft 106kts
19-Nov-20 21:38 47.707951 -122.339190 177 1972ft 97kts
19-Nov-20 21:39 47.681269 -122.336403 178 1980ft 96kts
19-Nov-20 21:40 47.654862 -122.333640 178 1983ft 95kts
19-Nov-20 21:41 47.628648 -122.330906 178 1992ft 94kts
19-Nov-20 21:42 47.602543 -122.328179 179 2009ft 95kts
19-Nov-20 21:43 47.575963 -122.322271 161 1962ft 102kts
19-Nov-20 21:44 47.548691 -122.309227 179 1549ft 99kts
19-Nov-20 21:45 47.521036 -122.309935 182 1238ft 100kts
19-Nov-20 21:46 47.495213 -122.310835 178 1042ft 80kts
19-Nov-20 21:47 47.472651 -122.310867 180 698ft 83kts
19-Nov-20 21:48 47.460128 -122.312317 269 420ft 0kts
19-Nov-20 21:49 47.456692 -122.313469 179 409ft 32kts
19-Nov-20 21:50 47.446766 -122.313571 180 382ft 39kts
19-Nov-20 21:51 47.439287 -122.315212 158 372ft 0kts
19-Nov-20 21:52 47.439287 -122.315212 158 372ft 0kts
19-Nov-20 21:53 47.439287 -122.315212 158 372ft 0kts
19-Nov-20 21:54 47.439287 -122.315212 158 372ft 0kts
19-Nov-20 21:55 47.439287 -122.315212 158 372ft 0kts
19-Nov-20 21:56 47.439287 -122.315212 158 372ft 0kts
19-Nov-20 21:57 47.439287 -122.315212 158 372ft 0kts
19-Nov-20 21:58 47.439287 -122.315212 158 372ft 0kts
19-Nov-20 21:59 47.439287 -122.315212 158 372ft 0kts
19-Nov-20 22:00 47.439287 -122.315212 158 372ft 0kts
19-Nov-20 22:01 47.439287 -122.315212 158 372ft 0kts
19-Nov-20 22:02 47.439287 -122.315212 158 372ft 0kts

Navigation Log

Ident Type
Flight plan parsing failed, navigation log unavailable